Date,TemperatureHighF,TemperatureAvgF,TemperatureLowF,DewpointHighF,DewpointAvgF,DewpointLowF,HumidityHigh,HumidityAvg,HumidityLow,PressureMaxIn,PressureMinIn,WindSpeedMaxMPH,WindSpeedAvgMPH,GustSpeedMaxMPH,PrecipitationSumIn
2012-11-23,33,32,32,22,21,20,67,63,60,30.20,30.15,4,2,13,0.00
2012-11-24,32,30,27,23,21,18,71,68,63,30.26,30.11,4,1,12,0.00
2012-11-25,43,33,28,28,24,19,84,69,52,30.11,29.91,3,1,9,0.00
2012-11-26,39,32,26,29,24,21,89,71,52,30.37,30.08,3,0,6,0.00
2012-11-27,38,32,27,23,19,12,71,57,45,30.45,30.32,2,0,7,0.00
2012-11-28,43,32,26,28,20,13,73,61,48,30.42,30.31,4,1,10,0.00
2012-11-29,50,40,28,32,27,20,76,61,41,30.37,30.21,3,0,11,0.00
2012-11-30,53,43,37,34,31,29,76,63,48,30.23,30.13,2,0,5,0.00
2012-12-1,42,35,32,37,31,29,90,84,76,30.24,30.21,2,0,5,0.00
2012-12-2,59,55,49,54,51,46,93,88,83,30.15,30.02,3,0,7,0.01
2012-12-3,65,58,50,61,55,48,95,89,71,30.15,29.93,5,1,18,0.01
2012-12-4,64,50,39,57,43,32,93,77,46,30.27,29.97,4,1,13,0.72
2012-12-5,43,34,29,33,24,21,77,67,52,30.49,30.26,3,1,9,0.01
2012-12-6,42,35,29,36,26,-100,82,73,67,30.34,29.99,3,1,11,0.00
2012-12-7,45,43,41,43,40,35,92,88,79,30.02,29.92,1,0,4,0.11
2012-12-8,43,40,34,41,36,28,94,88,78,30.18,29.88,3,0,9,0.19
2012-12-9,43,38,34,41,34,28,94,87,78,30.18,29.75,4,1,12,0.06
2012-12-10,41,34,31,39,31,27,93,87,80,29.96,29.72,5,1,11,0.02
2012-12-11,34,30,26,30,24,21,91,78,60,30.21,29.96,4,1,13,0.06
2012-12-12,44,33,24,26,23,19,83,68,48,30.40,30.21,3,0,7,0.01
2012-12-13,47,40,26,27,25,22,83,57,42,30.39,30.20,3,1,13,0.00
2012-12-14,48,38,29,32,28,23,81,67,51,30.31,30.17,2,0,7,0.00
2012-12-15,51,42,35,47,37,30,92,82,65,30.17,29.69,3,1,12,0.11
2012-12-16,51,46,40,48,43,35,93,86,82,29.78,29.65,4,1,12,0.03
2012-12-17,41,39,37,35,34,31,86,81,74,29.79,29.69,1,0,5,0.01
2012-12-18,39,36,30,35,31,25,90,82,75,29.86,29.70,2,0,10,0.02
2012-12-19,43,40,37,37,35,33,91,84,74,30.12,29.75,3,0,8,0.02
2012-12-20,50,41,33,48,38,30,92,87,74,30.02,29.13,6,2,19,0.89
2012-12-21,36,34,32,33,28,24,92,80,69,30.12,29.23,9,4,26,0.41
2012-12-22,32,27,23,25,20,17,83,75,68,30.16,30.07,4,1,10,0.25
2012-12-23,36,27,18,26,21,15,88,78,65,30.08,29.96,1,0,0,0.00
2012-12-24,34,29,25,27,23,20,82,78,71,30.09,29.86,3,0,3,0.01
2012-12-25,34,28,20,23,20,17,89,73,58,30.35,30.09,6,1,6,0.01
2012-12-26,30,28,25,25,22,18,88,79,67,30.29,29.94,11,2,15,0.01
2012-12-27,33,28,24,25,22,18,84,76,69,30.21,30.08,1,0,4,0.11
2012-12-28,32,29,26,28,25,22,89,84,79,30.20,29.96,2,0,6,0.01
2012-12-29,31,29,28,27,26,24,91,86,81,30.20,29.89,4,0,10,0.01
2012-12-30,28,24,15,24,18,12,89,77,65,30.39,30.20,3,1,9,0.01
2012-12-31,36,31,26,29,23,19,85,73,67,30.24,30.04,3,2,0,0.00
2013-1-1,31,26,15,22,17,10,79,70,61,30.21,30.11,2,0,0,0.00